createdAt,value
2018-07-06T00:00:16.636Z,18.80
2018-07-06T00:00:55.624Z,18.70
2018-07-06T00:01:34.755Z,18.70
2018-07-06T00:02:13.727Z,18.70
2018-07-06T00:02:52.820Z,18.70
2018-07-06T00:03:31.792Z,18.70
2018-07-06T00:04:10.908Z,18.70
2018-07-06T00:04:49.941Z,18.70
2018-07-06T00:06:02.296Z,18.70
2018-07-06T00:06:41.173Z,18.70
2018-07-06T00:07:21.314Z,18.60
2018-07-06T00:08:00.265Z,18.60
2018-07-06T00:08:39.452Z,18.60
2018-07-06T00:09:18.489Z,18.60
2018-07-06T00:09:57.304Z,18.60
2018-07-06T00:10:36.467Z,18.60
2018-07-06T00:11:15.569Z,18.60
2018-07-06T00:11:54.680Z,18.60
2018-07-06T00:12:33.564Z,18.60
2018-07-06T00:13:12.832Z,18.60
2018-07-06T00:14:25.029Z,18.50
2018-07-06T00:15:03.917Z,18.50
2018-07-06T00:15:42.940Z,18.50
2018-07-06T00:16:22.174Z,18.50
2018-07-06T00:17:01.632Z,18.50
2018-07-06T00:17:40.868Z,18.40
2018-07-06T00:18:19.954Z,18.40
2018-07-06T00:18:59.103Z,18.40
2018-07-06T00:19:38.188Z,18.40
2018-07-06T00:20:17.370Z,18.30
2018-07-06T00:20:56.963Z,18.30
2018-07-06T00:21:36.004Z,18.30
2018-07-06T00:22:15.125Z,18.30
2018-07-06T00:22:54.417Z,18.30
2018-07-06T00:23:33.504Z,18.30
2018-07-06T00:24:12.685Z,18.30
2018-07-06T00:24:51.828Z,18.30
2018-07-06T00:25:30.810Z,18.30
2018-07-06T00:26:09.643Z,18.30
2018-07-06T00:26:48.738Z,18.30
2018-07-06T00:27:27.779Z,18.30
2018-07-06T00:28:06.936Z,18.30
2018-07-06T00:28:46.019Z,18.30
2018-07-06T00:29:25.022Z,18.30
2018-07-06T00:30:03.836Z,18.20
2018-07-06T00:30:42.989Z,18.20
2018-07-06T00:31:22.087Z,18.20
2018-07-06T00:32:01.067Z,18.20
2018-07-06T00:32:39.941Z,18.20
2018-07-06T00:33:18.903Z,18.20
2018-07-06T00:33:57.896Z,18.20
2018-07-06T00:34:36.880Z,18.10
2018-07-06T00:35:15.957Z,18.10
2018-07-06T00:35:54.969Z,18.10
2018-07-06T00:36:33.977Z,18.10
2018-07-06T00:37:13.036Z,18.10
2018-07-06T00:37:52.032Z,18.10
2018-07-06T00:38:30.824Z,18.10
2018-07-06T00:39:09.841Z,18.10
2018-07-06T00:39:48.968Z,18.10
2018-07-06T00:40:28.025Z,18.10
2018-07-06T00:41:07.336Z,18.10
2018-07-06T00:41:46.444Z,18.00
2018-07-06T00:42:25.433Z,18.10
2018-07-06T00:43:04.515Z,18.10
2018-07-06T00:43:43.512Z,18.00
2018-07-06T00:44:22.671Z,18.00
2018-07-06T00:45:02.052Z,18.00
2018-07-06T00:45:41.030Z,18.00
2018-07-06T00:46:20.051Z,17.90
2018-07-06T00:46:59.139Z,17.90
2018-07-06T00:47:38.035Z,17.90
2018-07-06T00:48:17.134Z,17.90
2018-07-06T00:48:56.235Z,17.90
2018-07-06T00:49:35.052Z,17.90
2018-07-06T00:50:14.004Z,17.90
2018-07-06T00:50:53.064Z,17.90
2018-07-06T00:51:31.998Z,17.90
2018-07-06T00:52:10.991Z,17.90
2018-07-06T00:52:50.020Z,17.90
2018-07-06T00:53:28.898Z,17.80
2018-07-06T00:54:08.037Z,17.80
2018-07-06T00:54:47.070Z,17.80
2018-07-06T00:55:26.213Z,17.70
2018-07-06T00:56:05.061Z,17.70
2018-07-06T00:56:44.088Z,17.70
2018-07-06T00:57:23.136Z,17.70
2018-07-06T00:58:02.103Z,17.70
2018-07-06T00:59:14.248Z,17.70
2018-07-06T00:59:53.292Z,17.70
2018-07-06T01:00:32.183Z,17.70
2018-07-06T01:01:11.115Z,17.60
2018-07-06T01:01:50.180Z,17.60
2018-07-06T01:02:29.203Z,17.60
2018-07-06T01:03:08.600Z,17.60
2018-07-06T01:03:47.528Z,17.60
2018-07-06T01:04:26.655Z,17.60
2018-07-06T01:05:05.816Z,17.60
2018-07-06T01:05:44.852Z,17.60
2018-07-06T01:06:24.125Z,17.60
2018-07-06T01:07:03.139Z,17.60
2018-07-06T01:07:42.152Z,17.60
2018-07-06T01:08:21.303Z,17.60
2018-07-06T01:09:00.652Z,17.50
2018-07-06T01:09:40.107Z,17.50
2018-07-06T01:10:19.238Z,17.50
2018-07-06T01:10:58.358Z,17.50
2018-07-06T01:11:37.356Z,17.50
2018-07-06T01:12:22.176Z,17.50
2018-07-06T01:13:02.431Z,17.50
2018-07-06T01:13:41.501Z,17.50
2018-07-06T01:14:20.669Z,17.50
2018-07-06T01:15:04.166Z,17.50
2018-07-06T01:15:43.178Z,17.50
2018-07-06T01:16:22.199Z,17.50
2018-07-06T01:17:01.220Z,17.40
2018-07-06T01:17:40.318Z,17.40
2018-07-06T01:18:19.256Z,17.40
2018-07-06T01:18:58.215Z,17.40
2018-07-06T01:19:37.078Z,17.40
2018-07-06T01:20:15.996Z,17.40
2018-07-06T01:20:55.345Z,17.40
2018-07-06T01:21:34.263Z,17.30
2018-07-06T01:22:13.307Z,17.40
2018-07-06T01:22:52.312Z,17.40
2018-07-06T01:23:31.884Z,17.30
2018-07-06T01:24:10.900Z,17.30
2018-07-06T01:24:50.110Z,17.30
2018-07-06T01:25:29.217Z,17.30
2018-07-06T01:26:08.257Z,17.20
2018-07-06T01:26:47.309Z,17.20
2018-07-06T01:27:26.164Z,17.20
2018-07-06T01:28:05.349Z,17.30
2018-07-06T01:28:44.524Z,17.30
2018-07-06T01:29:23.777Z,17.20
2018-07-06T01:30:02.763Z,17.20
2018-07-06T01:30:41.919Z,17.30
2018-07-06T01:31:20.780Z,17.30
2018-07-06T01:31:59.773Z,17.30
2018-07-06T01:32:38.712Z,17.30
2018-07-06T01:33:17.819Z,17.30
2018-07-06T01:33:56.887Z,17.30
2018-07-06T01:34:35.995Z,17.30
2018-07-06T01:35:15.121Z,17.20
2018-07-06T01:35:54.168Z,17.20
2018-07-06T01:36:33.122Z,17.30
2018-07-06T01:37:12.113Z,17.30
2018-07-06T01:37:51.217Z,17.20
2018-07-06T01:38:30.449Z,17.20
2018-07-06T01:39:09.464Z,17.20
2018-07-06T01:39:48.666Z,17.20
2018-07-06T01:40:27.592Z,17.20
2018-07-06T01:41:06.508Z,17.10
2018-07-06T01:41:45.582Z,17.20
2018-07-06T01:42:57.592Z,17.20
2018-07-06T01:43:36.703Z,17.10
2018-07-06T01:44:15.786Z,17.10
2018-07-06T01:44:54.794Z,17.10
2018-07-06T01:45:33.862Z,17.10
2018-07-06T01:46:13.036Z,17.10
2018-07-06T01:46:52.123Z,17.10
2018-07-06T01:47:31.180Z,17.10
2018-07-06T01:48:10.052Z,17.10
2018-07-06T01:48:49.199Z,17.10
2018-07-06T01:49:28.457Z,17.10
2018-07-06T01:50:07.527Z,17.10
2018-07-06T01:50:46.547Z,17.10
2018-07-06T01:51:25.527Z,17.00
2018-07-06T01:52:04.600Z,17.00
2018-07-06T01:52:43.723Z,17.00
2018-07-06T01:53:22.987Z,17.00
2018-07-06T01:54:02.010Z,17.00
2018-07-06T01:54:40.984Z,17.00
2018-07-06T01:55:19.972Z,17.00
2018-07-06T01:55:58.909Z,16.90
2018-07-06T01:56:38.048Z,16.90
2018-07-06T01:57:17.062Z,17.00
2018-07-06T01:57:56.135Z,16.90
2018-07-06T01:58:35.076Z,16.90
2018-07-06T01:59:14.117Z,16.90
2018-07-06T01:59:53.155Z,16.90
2018-07-06T02:00:32.396Z,16.90
2018-07-06T02:01:11.261Z,16.90
2018-07-06T02:01:50.355Z,16.90
2018-07-06T02:02:29.550Z,16.90
2018-07-06T02:03:08.497Z,16.90
2018-07-06T02:03:47.622Z,16.90
2018-07-06T02:04:26.643Z,16.90
2018-07-06T02:05:05.708Z,16.90
2018-07-06T02:05:44.971Z,16.90
2018-07-06T02:06:24.013Z,16.90
2018-07-06T02:07:03.004Z,16.90
2018-07-06T02:07:42.094Z,16.80
2018-07-06T02:08:21.236Z,16.80
2018-07-06T02:09:00.204Z,16.90
2018-07-06T02:09:39.045Z,16.80
2018-07-06T02:10:18.108Z,16.80
2018-07-06T02:10:56.987Z,16.80
2018-07-06T02:11:36.056Z,16.80
2018-07-06T02:12:15.104Z,16.90
2018-07-06T02:12:54.036Z,16.90
2018-07-06T02:13:33.141Z,16.90
2018-07-06T02:14:12.178Z,16.90
2018-07-06T02:14:51.417Z,16.90
2018-07-06T02:16:04.074Z,16.90
2018-07-06T02:16:43.092Z,16.80
2018-07-06T02:17:22.199Z,16.80
2018-07-06T02:18:01.139Z,16.80
2018-07-06T02:18:40.390Z,16.80
2018-07-06T02:19:19.412Z,16.80
2018-07-06T02:19:58.560Z,16.70
2018-07-06T02:20:37.713Z,16.70
2018-07-06T02:21:17.524Z,16.80
2018-07-06T02:21:56.620Z,16.80
2018-07-06T02:22:35.747Z,16.80
2018-07-06T02:23:14.780Z,16.80
2018-07-06T02:23:53.977Z,16.80
2018-07-06T02:24:33.005Z,16.80
2018-07-06T02:25:12.220Z,16.80
2018-07-06T02:25:51.232Z,16.80
2018-07-06T02:26:30.371Z,16.80
2018-07-06T02:27:09.496Z,16.80
2018-07-06T02:27:48.320Z,16.80
2018-07-06T02:28:27.375Z,16.80
2018-07-06T02:29:06.407Z,16.80
2018-07-06T02:29:45.448Z,16.80
2018-07-06T02:30:24.460Z,16.80
2018-07-06T02:31:03.662Z,16.80
2018-07-06T02:31:42.488Z,16.80
2018-07-06T02:32:54.619Z,16.80
2018-07-06T02:33:33.639Z,16.80
2018-07-06T02:34:12.686Z,16.80
2018-07-06T02:34:51.598Z,16.80
2018-07-06T02:35:30.649Z,16.80
2018-07-06T02:36:09.920Z,16.80
2018-07-06T02:36:48.779Z,16.80
2018-07-06T02:37:28.274Z,16.80
2018-07-06T02:38:07.204Z,16.70
2018-07-06T02:38:46.204Z,16.80
2018-07-06T02:39:25.312Z,16.70
2018-07-06T02:40:04.452Z,16.70
2018-07-06T02:40:43.571Z,16.70
2018-07-06T02:41:22.623Z,16.70
2018-07-06T02:42:02.164Z,16.70
2018-07-06T02:42:41.266Z,16.70
2018-07-06T02:43:20.473Z,16.70
2018-07-06T02:43:59.332Z,16.70
2018-07-06T02:44:38.547Z,16.70
2018-07-06T02:45:17.697Z,16.70
2018-07-06T02:45:56.756Z,16.70
2018-07-06T02:46:35.832Z,16.70
2018-07-06T02:47:15.136Z,16.60
2018-07-06T02:47:54.029Z,16.60
2018-07-06T02:48:32.958Z,16.60
2018-07-06T02:49:11.899Z,16.60
2018-07-06T02:49:50.918Z,16.60
2018-07-06T02:50:30.033Z,16.50
2018-07-06T02:51:08.892Z,16.50
2018-07-06T02:51:47.731Z,16.60
2018-07-06T02:52:26.800Z,16.60
2018-07-06T02:53:05.768Z,16.60
2018-07-06T02:53:44.872Z,16.60
2018-07-06T02:54:24.063Z,16.60
2018-07-06T02:55:03.245Z,16.60
2018-07-06T02:55:43.295Z,16.60
2018-07-06T02:56:22.384Z,16.60
2018-07-06T02:57:01.397Z,16.60
2018-07-06T02:57:40.413Z,16.50
2018-07-06T02:58:19.413Z,16.50
2018-07-06T02:58:58.455Z,16.50
2018-07-06T02:59:37.416Z,16.50
2018-07-06T03:00:16.473Z,16.60
2018-07-06T03:00:55.620Z,16.50
2018-07-06T03:01:34.452Z,16.60
2018-07-06T03:02:13.421Z,16.50
2018-07-06T03:02:52.403Z,16.50
2018-07-06T03:03:31.404Z,16.50
2018-07-06T03:04:10.473Z,16.50
2018-07-06T03:04:49.556Z,16.50
2018-07-06T03:05:28.784Z,16.50
2018-07-06T03:06:07.685Z,16.60
2018-07-06T03:06:46.737Z,16.50
2018-07-06T03:07:25.920Z,16.50
2018-07-06T03:08:04.897Z,16.50
2018-07-06T03:08:44.113Z,16.50
2018-07-06T03:09:22.999Z,16.50
2018-07-06T03:10:01.880Z,16.50
2018-07-06T03:10:40.999Z,16.50
2018-07-06T03:11:19.984Z,16.50
2018-07-06T03:11:58.993Z,16.50
2018-07-06T03:12:37.995Z,16.50
2018-07-06T03:13:17.496Z,16.50
2018-07-06T03:13:56.764Z,16.50
2018-07-06T03:14:35.709Z,16.50
2018-07-06T03:15:14.674Z,16.50
2018-07-06T03:15:53.728Z,16.50
2018-07-06T03:16:32.752Z,16.50
2018-07-06T03:17:11.770Z,16.50
2018-07-06T03:17:50.662Z,16.50
2018-07-06T03:18:30.046Z,16.60
2018-07-06T03:19:09.115Z,16.50
2018-07-06T03:19:48.149Z,16.60
2018-07-06T03:21:02.388Z,16.50
2018-07-06T03:21:41.478Z,16.60
2018-07-06T03:22:20.718Z,16.50
2018-07-06T03:22:59.816Z,16.50
2018-07-06T03:23:38.763Z,16.50
2018-07-06T03:24:18.810Z,16.50
2018-07-06T03:24:57.920Z,16.50
2018-07-06T03:25:37.121Z,16.50
2018-07-06T03:26:16.161Z,16.50
2018-07-06T03:26:55.312Z,16.50
2018-07-06T03:27:34.368Z,16.50
2018-07-06T03:28:13.354Z,16.50
2018-07-06T03:28:52.547Z,16.40
2018-07-06T03:29:31.376Z,16.40
2018-07-06T03:30:10.510Z,16.40
2018-07-06T03:30:49.567Z,16.40
2018-07-06T03:31:28.812Z,16.50
2018-07-06T03:32:07.823Z,16.40
2018-07-06T03:32:46.815Z,16.40
2018-07-06T03:33:25.862Z,16.40
2018-07-06T03:34:04.956Z,16.40
2018-07-06T03:34:43.990Z,16.40
2018-07-06T03:35:23.044Z,16.40
2018-07-06T03:36:02.190Z,16.40
2018-07-06T03:36:41.086Z,16.30
2018-07-06T03:37:20.182Z,16.30
2018-07-06T03:37:59.027Z,16.30
2018-07-06T03:38:38.195Z,16.30
2018-07-06T03:39:17.319Z,16.30
2018-07-06T03:39:56.349Z,16.30
2018-07-06T03:40:35.487Z,16.40
2018-07-06T03:41:14.488Z,16.40
2018-07-06T03:41:53.596Z,16.30
2018-07-06T03:42:32.692Z,16.30
2018-07-06T03:43:11.728Z,16.30
2018-07-06T03:43:51.007Z,16.30
2018-07-06T03:44:30.064Z,16.30
2018-07-06T03:45:09.084Z,16.30
2018-07-06T03:45:47.973Z,16.30
2018-07-06T03:46:27.083Z,16.30
2018-07-06T03:47:06.098Z,16.40
2018-07-06T03:47:45.293Z,16.30
2018-07-06T03:48:27.096Z,16.30
2018-07-06T03:49:06.000Z,16.30
2018-07-06T03:49:45.283Z,16.20
2018-07-06T03:50:24.173Z,16.20
2018-07-06T03:51:03.053Z,16.20
2018-07-06T03:51:42.174Z,16.20
2018-07-06T03:52:21.328Z,16.20
2018-07-06T03:53:00.153Z,16.20
2018-07-06T03:53:39.040Z,16.20
2018-07-06T03:54:18.048Z,16.20
2018-07-06T03:54:56.843Z,16.20
2018-07-06T03:55:36.007Z,16.20
2018-07-06T03:56:15.120Z,16.20
2018-07-06T03:56:54.136Z,16.20
2018-07-06T03:57:33.256Z,16.20
2018-07-06T03:58:12.284Z,16.30
2018-07-06T03:58:51.937Z,16.30
2018-07-06T03:59:31.048Z,16.30
2018-07-06T04:00:10.142Z,16.30
2018-07-06T04:00:49.235Z,16.30
2018-07-06T04:01:28.358Z,16.30
2018-07-06T04:02:07.439Z,16.30
2018-07-06T04:02:46.436Z,16.30
2018-07-06T04:03:25.517Z,16.30
2018-07-06T04:04:37.632Z,16.30
2018-07-06T04:05:16.573Z,16.30
2018-07-06T04:05:55.681Z,16.30
2018-07-06T04:06:34.592Z,16.30
2018-07-06T04:07:13.713Z,16.40
2018-07-06T04:07:52.746Z,16.30
2018-07-06T04:08:31.735Z,16.30
2018-07-06T04:09:10.906Z,16.30
2018-07-06T04:09:49.868Z,16.30
2018-07-06T04:10:28.867Z,16.30
2018-07-06T04:11:08.009Z,16.30
2018-07-06T04:11:47.047Z,16.30
2018-07-06T04:12:26.336Z,16.30
2018-07-06T04:13:05.433Z,16.30
2018-07-06T04:13:44.532Z,16.30
2018-07-06T04:14:23.521Z,16.40
2018-07-06T04:15:02.445Z,16.40
2018-07-06T04:15:41.519Z,16.40
2018-07-06T04:16:20.561Z,16.40
2018-07-06T04:16:59.699Z,16.40
2018-07-06T04:17:38.872Z,16.40
2018-07-06T04:18:17.983Z,16.40
2018-07-06T04:19:02.461Z,16.40
2018-07-06T04:19:41.430Z,16.40
2018-07-06T04:20:20.506Z,16.50
2018-07-06T04:20:59.494Z,16.50
2018-07-06T04:21:38.384Z,16.50
2018-07-06T04:22:17.423Z,16.50
2018-07-06T04:22:56.628Z,16.50
2018-07-06T04:23:35.741Z,16.50
2018-07-06T04:24:15.093Z,16.50
2018-07-06T04:24:54.168Z,16.50
2018-07-06T04:25:33.214Z,16.50
2018-07-06T04:26:12.362Z,16.50
2018-07-06T04:26:51.384Z,16.60
2018-07-06T04:27:30.376Z,16.60
2018-07-06T04:28:09.492Z,16.60
2018-07-06T04:28:48.237Z,16.60
2018-07-06T04:29:27.330Z,16.60
2018-07-06T04:30:06.314Z,16.60
2018-07-06T04:30:45.923Z,16.60
2018-07-06T04:31:25.654Z,16.60
2018-07-06T04:32:04.679Z,16.70
2018-07-06T04:32:43.707Z,16.60
2018-07-06T04:33:23.086Z,16.70
2018-07-06T04:34:02.165Z,16.70
2018-07-06T04:34:41.331Z,16.70
2018-07-06T04:35:20.378Z,16.70
2018-07-06T04:35:59.891Z,16.70
2018-07-06T04:36:38.850Z,16.80
2018-07-06T04:37:17.806Z,16.70
2018-07-06T04:37:56.847Z,16.70
2018-07-06T04:38:35.967Z,16.80
2018-07-06T04:39:14.848Z,16.80
2018-07-06T04:39:53.908Z,16.80
2018-07-06T04:40:32.859Z,16.80
2018-07-06T04:41:12.259Z,16.90
2018-07-06T04:41:51.196Z,16.80
2018-07-06T04:42:30.375Z,16.90
2018-07-06T04:43:43.141Z,16.90
2018-07-06T04:44:27.372Z,17.00
2018-07-06T04:46:29.605Z,17.00
2018-07-06T04:47:08.603Z,17.10
2018-07-06T04:47:47.697Z,17.10
2018-07-06T04:48:26.988Z,17.10
2018-07-06T04:49:05.896Z,17.10
2018-07-06T04:49:45.013Z,17.20
2018-07-06T04:50:23.882Z,17.20
2018-07-06T04:51:03.484Z,17.20
2018-07-06T04:51:42.676Z,17.20
2018-07-06T04:52:21.700Z,17.20
2018-07-06T04:53:00.805Z,17.20
2018-07-06T04:53:39.861Z,17.20
2018-07-06T04:54:18.946Z,17.30
2018-07-06T04:54:57.961Z,17.30
2018-07-06T04:55:36.934Z,17.30
2018-07-06T04:56:15.936Z,17.30
2018-07-06T04:56:55.068Z,17.30
2018-07-06T04:57:33.941Z,17.40
2018-07-06T04:58:45.923Z,17.40
2018-07-06T04:59:24.984Z,17.40
2018-07-06T05:00:04.441Z,17.40
2018-07-06T05:00:43.373Z,17.50
2018-07-06T05:01:22.484Z,17.60
2018-07-06T05:02:01.409Z,17.60
2018-07-06T05:02:40.356Z,17.60
2018-07-06T05:03:52.707Z,17.70
2018-07-06T05:04:31.845Z,17.60
2018-07-06T05:05:11.057Z,17.70
2018-07-06T05:05:49.933Z,17.70
2018-07-06T05:06:29.060Z,17.70
2018-07-06T05:07:08.017Z,17.80
2018-07-06T05:07:47.031Z,17.80
2018-07-06T05:08:25.900Z,17.80
2018-07-06T05:09:05.210Z,17.90
2018-07-06T05:09:44.360Z,17.90
2018-07-06T05:10:23.494Z,17.90
2018-07-06T05:11:02.432Z,17.90
2018-07-06T05:11:41.482Z,17.90
2018-07-06T05:12:20.816Z,17.90
2018-07-06T05:12:59.751Z,17.90
2018-07-06T05:14:14.778Z,18.00
2018-07-06T05:14:53.640Z,18.00
2018-07-06T05:15:32.602Z,18.00
2018-07-06T05:16:11.628Z,18.00
2018-07-06T05:16:50.615Z,18.00
2018-07-06T05:17:29.465Z,18.00
2018-07-06T05:18:08.350Z,18.10
2018-07-06T05:18:47.361Z,18.10
2018-07-06T05:19:26.343Z,18.00
2018-07-06T05:20:05.340Z,18.00
2018-07-06T05:20:45.032Z,18.00
2018-07-06T05:21:24.348Z,18.10
2018-07-06T05:22:03.401Z,18.00
2018-07-06T05:23:15.676Z,18.10
2018-07-06T05:23:54.740Z,18.10
2018-07-06T05:24:33.706Z,18.10
2018-07-06T05:25:12.815Z,18.10
2018-07-06T05:25:51.892Z,18.10
2018-07-06T05:26:30.951Z,18.10
2018-07-06T05:27:09.980Z,18.10
2018-07-06T05:27:48.975Z,18.10
2018-07-06T05:28:27.885Z,18.10
2018-07-06T05:29:07.144Z,18.10
2018-07-06T05:29:46.036Z,18.10
2018-07-06T05:30:24.896Z,18.10
2018-07-06T05:31:03.813Z,18.10
2018-07-06T05:31:42.792Z,18.10
2018-07-06T05:32:21.832Z,18.10
2018-07-06T05:33:01.007Z,18.10
2018-07-06T05:33:39.983Z,18.10
2018-07-06T05:34:18.942Z,18.20
2018-07-06T05:34:57.844Z,18.20
2018-07-06T05:35:36.740Z,18.20
2018-07-06T05:36:15.636Z,18.10
2018-07-06T05:36:55.184Z,18.20
2018-07-06T05:37:34.217Z,18.20
2018-07-06T05:38:13.169Z,18.20
2018-07-06T05:38:52.236Z,18.20
2018-07-06T05:39:31.203Z,18.20
2018-07-06T05:40:10.333Z,18.20
2018-07-06T05:40:49.228Z,18.20
2018-07-06T05:41:28.290Z,18.20
2018-07-06T05:42:07.556Z,18.30
2018-07-06T05:42:46.384Z,18.20
2018-07-06T05:43:25.533Z,18.20
2018-07-06T05:44:04.469Z,18.20
2018-07-06T05:44:43.258Z,18.30
2018-07-06T05:45:22.273Z,18.30
2018-07-06T05:46:01.352Z,18.30
2018-07-06T05:46:40.496Z,18.30
2018-07-06T05:47:19.453Z,18.30
2018-07-06T05:48:31.573Z,18.30
2018-07-06T05:49:10.904Z,18.30
2018-07-06T05:49:50.339Z,18.40
2018-07-06T05:50:29.294Z,18.40
2018-07-06T05:51:08.508Z,18.40
2018-07-06T05:52:20.727Z,18.50
2018-07-06T05:52:59.661Z,18.40
2018-07-06T05:53:38.625Z,18.50
2018-07-06T05:54:50.811Z,18.50
2018-07-06T05:55:29.855Z,18.50
2018-07-06T05:56:09.057Z,18.50
2018-07-06T05:56:47.867Z,18.50
2018-07-06T05:57:26.855Z,18.50
2018-07-06T05:58:05.736Z,18.50
2018-07-06T05:58:45.258Z,18.50
2018-07-06T05:59:24.139Z,18.60
2018-07-06T06:00:03.489Z,18.60
2018-07-06T06:00:42.452Z,18.60
2018-07-06T06:01:21.416Z,18.60
2018-07-06T06:02:00.432Z,18.60
2018-07-06T06:02:39.316Z,18.60
2018-07-06T06:03:18.380Z,18.60
2018-07-06T06:03:57.491Z,18.60
2018-07-06T06:04:36.505Z,18.60
2018-07-06T06:05:15.333Z,18.60
2018-07-06T06:05:54.293Z,18.60
2018-07-06T06:06:33.442Z,18.60
2018-07-06T06:07:12.508Z,18.70
2018-07-06T06:07:38.972Z,18.70
2018-07-06T06:08:05.448Z,18.60
2018-07-06T06:08:31.913Z,18.70
2018-07-06T06:08:58.476Z,18.70
2018-07-06T06:09:26.299Z,18.70
2018-07-06T06:09:54.150Z,18.60
2018-07-06T06:10:23.233Z,18.70
2018-07-06T06:10:50.845Z,18.60
2018-07-06T06:11:18.639Z,18.60
2018-07-06T06:11:46.355Z,18.60
2018-07-06T06:12:14.247Z,18.70
2018-07-06T06:12:41.910Z,18.70
2018-07-06T06:13:09.665Z,18.80
2018-07-06T06:14:04.858Z,18.80
2018-07-06T06:14:32.592Z,18.90
2018-07-06T06:15:00.254Z,19.00
2018-07-06T06:15:28.017Z,19.00
2018-07-06T06:15:55.637Z,19.10
2018-07-06T06:16:23.287Z,19.10
2018-07-06T06:16:50.969Z,19.10
2018-07-06T06:17:18.607Z,19.00
2018-07-06T06:17:46.351Z,19.10
2018-07-06T06:18:14.184Z,19.00
2018-07-06T06:18:42.017Z,19.10
2018-07-06T06:19:09.529Z,19.10
2018-07-06T06:19:37.152Z,19.10
2018-07-06T06:20:04.976Z,19.10
2018-07-06T06:20:32.704Z,19.10
2018-07-06T06:21:00.526Z,19.10
2018-07-06T06:21:28.127Z,19.20
2018-07-06T06:21:55.740Z,19.30
2018-07-06T06:22:23.384Z,19.30
2018-07-06T06:22:51.167Z,19.30
2018-07-06T06:23:19.115Z,19.20
2018-07-06T06:23:46.775Z,19.20
2018-07-06T06:24:14.577Z,19.30
2018-07-06T06:24:42.156Z,19.30
2018-07-06T06:25:09.816Z,19.30
2018-07-06T06:25:37.430Z,19.40
2018-07-06T06:26:05.058Z,19.50
2018-07-06T06:26:32.649Z,19.60
2018-07-06T06:27:01.155Z,19.70
2018-07-06T06:27:28.928Z,19.80
2018-07-06T06:28:24.002Z,20.00
2018-07-06T06:28:51.892Z,20.10
2018-07-06T06:29:19.586Z,20.20
2018-07-06T06:29:48.885Z,20.30
2018-07-06T06:30:16.568Z,20.30
2018-07-06T06:30:44.247Z,20.40
2018-07-06T06:31:12.007Z,20.40
2018-07-06T06:31:39.785Z,20.30
2018-07-06T06:32:08.302Z,20.20
2018-07-06T06:32:36.048Z,20.20
2018-07-06T06:33:03.762Z,20.10
2018-07-06T06:33:31.474Z,20.10
2018-07-06T06:34:01.038Z,20.10
2018-07-06T06:34:28.664Z,20.10
2018-07-06T06:34:56.285Z,20.10
2018-07-06T06:35:23.940Z,20.10
2018-07-06T06:35:51.778Z,20.10
2018-07-06T06:36:19.516Z,20.10
2018-07-06T06:36:48.503Z,20.10
2018-07-06T06:37:16.225Z,20.10
2018-07-06T06:37:44.344Z,20.10
2018-07-06T06:38:12.089Z,20.10
2018-07-06T06:38:39.867Z,20.10
2018-07-06T06:39:07.512Z,20.10
2018-07-06T06:39:35.192Z,20.10
2018-07-06T06:40:02.902Z,20.10
2018-07-06T06:40:30.573Z,20.10
2018-07-06T06:40:58.281Z,20.10
2018-07-06T06:41:26.023Z,20.10
2018-07-06T06:41:54.281Z,20.10
2018-07-06T06:42:50.099Z,20.10
2018-07-06T06:43:18.118Z,20.10
2018-07-06T06:43:46.264Z,20.10
2018-07-06T06:44:14.093Z,20.20
2018-07-06T06:44:41.785Z,20.10
2018-07-06T06:45:09.556Z,20.10
2018-07-06T06:45:37.165Z,20.00
2018-07-06T06:46:04.968Z,20.00
2018-07-06T06:46:32.676Z,20.00
2018-07-06T06:47:00.523Z,20.00
2018-07-06T06:47:28.445Z,20.00
2018-07-06T06:47:56.148Z,20.00
2018-07-06T06:48:23.959Z,20.00
2018-07-06T06:48:51.688Z,20.00
2018-07-06T06:49:47.021Z,19.90
2018-07-06T06:50:14.763Z,19.90
2018-07-06T06:50:42.509Z,19.90
2018-07-06T06:51:10.661Z,19.90
2018-07-06T06:52:05.840Z,20.00
2018-07-06T06:53:02.112Z,20.00
2018-07-06T06:53:29.858Z,20.00
2018-07-06T06:53:57.583Z,20.00
2018-07-06T06:54:25.668Z,20.00
2018-07-06T06:54:53.504Z,19.90
2018-07-06T06:55:21.160Z,19.90
2018-07-06T06:55:48.864Z,19.90
2018-07-06T06:56:16.504Z,19.90
2018-07-06T06:56:44.299Z,19.90
2018-07-06T06:57:12.046Z,19.90
2018-07-06T06:57:39.660Z,19.90
2018-07-06T06:58:07.348Z,20.00
2018-07-06T06:58:34.952Z,20.00
2018-07-06T06:59:02.722Z,20.10
2018-07-06T06:59:30.412Z,20.10
2018-07-06T06:59:58.151Z,20.10
2018-07-06T07:00:27.662Z,20.00
2018-07-06T07:00:53.651Z,19.90
2018-07-06T07:01:22.042Z,19.90
2018-07-06T07:01:49.769Z,20.00
2018-07-06T07:02:17.430Z,20.00
2018-07-06T07:02:45.065Z,20.00
2018-07-06T07:03:12.735Z,20.10
2018-07-06T07:04:07.992Z,20.10
2018-07-06T07:04:35.782Z,20.20
2018-07-06T07:05:03.418Z,20.30
2018-07-06T07:05:31.358Z,20.20
2018-07-06T07:05:59.083Z,20.40
2018-07-06T07:06:26.753Z,20.40
2018-07-06T07:06:54.745Z,20.50
2018-07-06T07:07:22.466Z,20.50
2018-07-06T07:07:50.462Z,20.50
2018-07-06T07:08:18.060Z,20.50
2018-07-06T07:08:46.528Z,20.50
2018-07-06T07:09:14.278Z,20.50
2018-07-06T07:09:42.072Z,20.50
2018-07-06T07:10:09.711Z,20.60
2018-07-06T07:10:37.414Z,20.60
2018-07-06T07:11:05.064Z,20.60
2018-07-06T07:11:32.964Z,20.60
2018-07-06T07:12:00.649Z,20.60
2018-07-06T07:12:28.327Z,20.60
2018-07-06T07:12:56.028Z,20.70
2018-07-06T07:13:23.832Z,20.90
2018-07-06T07:13:51.972Z,20.90
2018-07-06T07:14:20.307Z,20.90
2018-07-06T07:14:47.932Z,20.80
2018-07-06T07:15:15.660Z,20.80
2018-07-06T07:15:43.793Z,20.70
2018-07-06T07:16:11.402Z,20.70
2018-07-06T07:16:39.343Z,20.70
2018-07-06T07:17:07.036Z,20.70
2018-07-06T07:18:02.581Z,20.70
2018-07-06T07:18:30.611Z,20.70
2018-07-06T07:18:58.297Z,20.70
2018-07-06T07:19:26.013Z,20.60
2018-07-06T07:19:54.010Z,20.60
2018-07-06T07:20:21.691Z,20.60
2018-07-06T07:20:49.331Z,20.60
2018-07-06T07:21:17.227Z,20.60
2018-07-06T07:21:44.962Z,20.60
2018-07-06T07:22:12.636Z,20.60
2018-07-06T07:22:40.308Z,20.60
2018-07-06T07:23:07.992Z,20.60
2018-07-06T07:24:03.109Z,20.50
2018-07-06T07:24:32.224Z,20.60
2018-07-06T07:24:59.960Z,20.60
2018-07-06T07:25:27.965Z,20.70
2018-07-06T07:25:55.847Z,20.70
2018-07-06T07:26:23.633Z,20.60
2018-07-06T07:26:51.323Z,20.70
2018-07-06T07:27:19.049Z,20.70
2018-07-06T07:27:46.684Z,20.70
2018-07-06T07:28:14.358Z,20.80
2018-07-06T07:28:42.093Z,20.80
2018-07-06T07:29:09.740Z,20.90
2018-07-06T07:29:37.451Z,20.90
2018-07-06T07:30:05.070Z,20.90
2018-07-06T07:30:32.720Z,20.90
2018-07-06T07:31:00.412Z,21.00
2018-07-06T07:31:28.454Z,21.00
2018-07-06T07:31:57.081Z,21.00
2018-07-06T07:32:24.745Z,21.10
2018-07-06T07:32:52.572Z,21.10
2018-07-06T07:33:20.321Z,21.10
2018-07-06T07:33:47.988Z,21.10
2018-07-06T07:34:15.696Z,21.10
2018-07-06T07:34:43.404Z,21.20
2018-07-06T07:35:11.039Z,21.20
2018-07-06T07:35:38.736Z,21.30
2018-07-06T07:36:06.384Z,21.30
2018-07-06T07:36:34.144Z,21.30
2018-07-06T07:37:03.086Z,21.20
2018-07-06T07:37:31.060Z,21.30
2018-07-06T07:37:59.007Z,21.30
2018-07-06T07:38:26.969Z,21.20
2018-07-06T07:38:54.656Z,21.30
2018-07-06T07:39:22.421Z,21.20
2018-07-06T07:39:50.257Z,21.20
2018-07-06T07:40:19.237Z,21.20
2018-07-06T07:40:47.030Z,21.20
2018-07-06T07:41:14.741Z,21.30
2018-07-06T07:41:42.500Z,21.30
2018-07-06T07:42:10.570Z,21.40
2018-07-06T07:42:38.397Z,21.40
2018-07-06T07:43:06.112Z,21.40
2018-07-06T07:43:33.876Z,21.40
2018-07-06T07:44:01.554Z,21.50
2018-07-06T07:44:29.275Z,21.50
2018-07-06T07:44:56.859Z,21.60
2018-07-06T07:45:25.172Z,21.60
2018-07-06T07:45:52.915Z,21.60
2018-07-06T07:46:20.493Z,21.70
2018-07-06T07:46:48.377Z,21.70
2018-07-06T07:47:16.099Z,21.80
2018-07-06T07:48:11.281Z,21.80
2018-07-06T07:48:39.027Z,22.10
2018-07-06T07:49:06.651Z,22.20
2018-07-06T07:49:34.265Z,22.10
2018-07-06T07:50:01.972Z,22.10
2018-07-06T07:50:29.669Z,22.10
2018-07-06T07:52:15.205Z,22.10
2018-07-06T07:52:56.786Z,22.10
2018-07-06T07:53:35.925Z,22.00
2018-07-06T07:54:14.944Z,21.90
2018-07-06T07:54:51.910Z,21.90
2018-07-06T07:55:19.659Z,22.00
2018-07-06T07:55:47.377Z,22.10
2018-07-06T07:56:15.057Z,22.10
2018-07-06T07:56:42.875Z,22.10
2018-07-06T07:57:10.768Z,22.00
2018-07-06T07:57:38.565Z,22.10
2018-07-06T07:58:06.434Z,22.10